Time;durP1;ratioP1;P1;durP2;ratioP2;P2;SDS_P1;SDS_P2;PMS_P1;PMS_P2;Temp;Humidity;BMP_temperature;BMP_pressure;BME280_temperature;BME280_humidity;BME280_pressure;Samples;Min_cycle;Max_cycle;Signal;HPM_P1;HPM_P2
2023/05/22 00:00:12;;;;;;;20.95;17.30;;;;;;;16.47;97.15;100802.50;844046;23;1216;-82
2023/05/22 00:00:34;;;;;;;22.08;17.00;;;;;;;16.47;96.92;100800.75;849498;23;1034;-82
2023/05/22 00:00:55;;;;;;;22.75;17.08;;;;;;;16.43;97.18;100799.84;841539;23;918;-82
2023/05/22 00:01:18;;;;;;;23.20;17.55;;;;;;;16.39;97.05;100795.47;843974;23;1300;-82
2023/05/22 00:01:41;;;;;;;22.95;18.00;;;;;;;16.44;97.11;100804.28;843965;23;1009;-82
2023/05/22 00:02:03;;;;;;;22.75;18.05;;;;;;;16.41;97.07;100798.09;840269;23;1448;-82
2023/05/22 00:02:24;;;;;;;23.10;17.92;;;;;;;16.44;96.94;100809.53;843789;23;1246;-82
2023/05/22 00:02:44;;;;;;;23.33;17.70;;;;;;;16.39;97.18;100794.56;843808;23;1268;-82
2023/05/22 00:03:05;;;;;;;23.83;17.63;;;;;;;16.41;97.00;100804.25;842929;23;1391;-82
2023/05/22 00:03:27;;;;;;;24.33;18.00;;;;;;;16.42;97.03;100815.66;843922;23;1157;-82
2023/05/22 00:03:49;;;;;;;25.15;18.30;;;;;;;16.42;97.11;100802.50;837375;23;1470;-82
2023/05/22 00:04:12;;;;;;;24.42;18.45;;;;;;;16.39;96.84;100798.09;837470;23;967;-82
2023/05/22 00:04:32;;;;;;;23.27;18.02;;;;;;;16.38;97.04;100792.81;839731;23;1205;-82
2023/05/22 00:04:53;;;;;;;21.98;17.38;;;;;;;16.33;96.94;100792.78;839673;23;1275;-82
2023/05/22 00:05:14;;;;;;;21.23;17.37;;;;;;;16.36;96.82;100798.09;838724;23;1902;-82
2023/05/22 00:05:37;;;;;;;22.10;17.00;;;;;;;16.31;97.04;100792.78;841099;23;1032;-82
2023/05/22 00:05:59;;;;;;;23.05;17.80;;;;;;;16.33;96.81;100795.44;840024;23;1222;-83
2023/05/22 00:06:21;;;;;;;21.55;17.55;;;;;;;16.31;96.97;100795.41;836050;23;1369;-82
2023/05/22 00:06:42;;;;;;;21.60;18.08;;;;;;;16.30;97.05;100791.03;839990;23;1248;-82
2023/05/22 00:07:03;;;;;;;21.85;18.30;;;;;;;16.37;97.10;100807.75;839166;23;1424;-82
2023/05/22 00:07:23;;;;;;;22.50;18.50;;;;;;;16.32;97.08;100793.66;840018;23;1229;-81
2023/05/22 00:07:45;;;;;;;22.80;18.42;;;;;;;16.31;96.96;100805.06;837370;23;791;-82
2023/05/22 00:08:21;;;;;;;22.35;18.10;;;;;;;16.25;97.00;100797.13;835087;23;1128;-82
2023/05/22 00:08:41;;;;;;;23.30;17.45;;;;;;;16.25;96.94;100798.03;835486;23;1345;-82
2023/05/22 00:09:02;;;;;;;22.88;16.90;;;;;;;16.26;97.00;100793.63;836278;23;1197;-82
2023/05/22 00:09:27;;;;;;;22.52;17.33;;;;;;;16.29;97.15;100806.84;836018;23;1571;-81
2023/05/22 00:09:48;;;;;;;23.15;17.60;;;;;;;16.21;96.95;100800.63;835927;23;1250;-80
2023/05/22 00:10:09;;;;;;;23.65;17.85;;;;;;;16.24;97.03;100811.16;837593;23;1089;-81
2023/05/22 00:10:30;;;;;;;23.25;17.85;;;;;;;16.17;97.24;100795.31;837304;23;939;-82
2023/05/22 00:10:51;;;;;;;23.35;17.83;;;;;;;16.13;97.29;100792.66;839723;23;1251;-82
2023/05/22 00:11:11;;;;;;;23.30;18.20;;;;;;;16.17;97.51;100800.59;841570;23;866;-82
2023/05/22 00:11:33;;;;;;;23.05;17.75;;;;;;;16.18;97.60;100799.72;843059;23;1268;-82
2023/05/22 00:11:54;;;;;;;22.88;17.80;;;;;;;16.26;97.55;100805.06;848092;23;1234;-82
2023/05/22 00:12:15;;;;;;;23.38;17.90;;;;;;;16.23;97.72;100796.22;840049;23;1140;-82
2023/05/22 00:12:35;;;;;;;24.20;18.23;;;;;;;16.25;97.48;100799.78;841097;23;988;-82
2023/05/22 00:12:56;;;;;;;24.10;18.77;;;;;;;16.20;97.40;100804.09;840101;23;1192;-82
2023/05/22 00:13:17;;;;;;;23.85;18.23;;;;;;;16.18;97.39;100789.16;840035;23;1111;-82
2023/05/22 00:13:38;;;;;;;22.30;17.98;;;;;;;16.22;97.01;100807.63;835834;23;1071;-82
2023/05/22 00:13:58;;;;;;;21.60;17.30;;;;;;;16.21;97.13;100796.22;839772;23;1205;-82
2023/05/22 00:14:19;;;;;;;20.30;16.90;;;;;;;16.28;96.93;100805.03;839674;23;1220;-82
2023/05/22 00:14:40;;;;;;;21.30;16.90;;;;;;;16.24;96.76;100795.34;841058;23;1134;-82
2023/05/22 00:15:01;;;;;;;22.98;17.42;;;;;;;16.18;96.31;100793.56;839027;23;1189;-82
2023/05/22 00:15:21;;;;;;;23.38;17.88;;;;;;;16.27;96.54;100813.81;845159;23;1072;-82
2023/05/22 00:15:42;;;;;;;23.00;17.90;;;;;;;16.21;96.58;100805.88;849442;23;918;-82
2023/05/22 00:16:03;;;;;;;22.02;17.42;;;;;;;16.18;96.74;100807.59;844163;23;1157;-82
2023/05/22 00:16:23;;;;;;;22.83;17.65;;;;;;;16.11;96.69;100799.69;849613;23;1009;-82
2023/05/22 00:16:45;;;;;;;22.55;17.83;;;;;;;16.15;97.07;100802.34;845349;23;748;-82
2023/05/22 00:17:05;;;;;;;22.27;18.02;;;;;;;16.20;96.86;100806.72;845582;23;984;-82
2023/05/22 00:17:26;;;;;;;22.67;17.90;;;;;;;16.20;96.93;100804.09;851996;23;1415;-82
2023/05/22 00:17:47;;;;;;;22.13;17.38;;;;;;;16.20;96.90;100804.09;848176;23;1148;-83
2023/05/22 00:18:07;;;;;;;22.05;17.20;;;;;;;16.21;96.82;100792.72;836184;23;1158;-82
2023/05/22 00:18:28;;;;;;;21.75;17.50;;;;;;;16.23;96.77;100798.88;849269;23;1095;-82
2023/05/22 00:18:49;;;;;;;23.27;17.92;;;;;;;16.27;96.91;100808.56;848109;23;1266;-82
2023/05/22 00:19:12;;;;;;;22.90;17.63;;;;;;;16.24;96.99;100803.25;852456;23;1166;-82
2023/05/22 00:19:33;;;;;;;22.65;17.17;;;;;;;16.26;96.57;100805.06;847843;23;1168;-82
2023/05/22 00:19:54;;;;;;;21.98;16.92;;;;;;;16.22;96.71;100795.34;845653;23;921;-82
2023/05/22 00:20:15;;;;;;;24.00;17.50;;;;;;;16.28;96.41;100810.31;844255;23;1160;-82
2023/05/22 00:20:37;;;;;;;23.15;17.65;;;;;;;16.28;96.14;100807.69;836528;23;1276;-82
2023/05/22 00:20:57;;;;;;;22.92;17.83;;;;;;;16.21;96.31;100803.25;841681;23;851;-81
2023/05/22 00:21:18;;;;;;;22.48;18.10;;;;;;;16.14;96.22;100790.03;843391;23;1427;-82
2023/05/22 00:21:39;;;;;;;23.85;18.45;;;;;;;16.21;96.39;100803.25;843958;23;1173;-82
2023/05/22 00:22:00;;;;;;;23.70;18.17;;;;;;;16.25;96.42;100808.56;848403;23;1155;-82
2023/05/22 00:22:21;;;;;;;24.38;18.45;;;;;;;16.28;96.72;100815.56;839534;23;1264;-82
2023/05/22 00:22:41;;;;;;;25.20;18.27;;;;;;;16.26;96.67;100809.44;840046;23;1192;-82
2023/05/22 00:23:03;;;;;;;25.33;18.25;;;;;;;16.22;96.68;100802.38;840231;23;1277;-82
2023/05/22 00:23:23;;;;;;;24.52;17.80;;;;;;;16.29;96.76;100812.09;841399;23;1103;-82
2023/05/22 00:23:44;;;;;;;22.13;17.38;;;;;;;16.22;96.53;100803.22;845836;23;755;-82
2023/05/22 00:24:05;;;;;;;22.23;17.60;;;;;;;16.21;96.52;100796.22;843838;23;1161;-81
2023/05/22 00:24:26;;;;;;;22.70;17.63;;;;;;;16.28;96.77;100807.69;839824;23;1170;-82
2023/05/22 00:24:47;;;;;;;23.92;17.88;;;;;;;16.28;96.60;100807.69;842005;23;653;-82
2023/05/22 00:25:08;;;;;;;24.47;18.07;;;;;;;16.25;96.46;100805.03;839599;23;1907;-82
2023/05/22 00:25:29;;;;;;;24.08;18.45;;;;;;;16.20;96.54;100797.09;841653;23;1060;-82
2023/05/22 00:25:50;;;;;;;24.95;19.15;;;;;;;16.24;96.62;100796.25;842443;23;771;-82
2023/05/22 00:26:15;;;;;;;24.95;18.63;;;;;;;16.28;96.59;100808.56;837184;23;1098;-82
2023/05/22 00:26:36;;;;;;;26.42;18.88;;;;;;;16.30;96.65;100811.22;836503;23;998;-82
2023/05/22 00:26:56;;;;;;;26.13;18.90;;;;;;;16.19;96.59;100790.06;840704;23;1057;-82
2023/05/22 00:27:17;;;;;;;24.20;18.40;;;;;;;16.25;96.42;100797.13;842719;23;906;-82
2023/05/22 00:27:39;;;;;;;22.67;17.67;;;;;;;16.18;96.44;100788.31;836830;23;1340;-82
2023/05/22 00:28:00;;;;;;;23.13;17.77;;;;;;;16.21;96.49;100795.34;845141;23;1137;-82
2023/05/22 00:28:20;;;;;;;22.40;17.80;;;;;;;16.24;96.48;100795.34;846496;23;1114;-82
2023/05/22 00:28:43;;;;;;;21.90;17.67;;;;;;;16.24;96.35;100795.34;842369;23;1055;-82
2023/05/22 00:29:08;;;;;;;22.05;17.80;;;;;;;16.22;96.44;100791.84;846391;23;1090;-82
2023/05/22 00:29:29;;;;;;;22.92;17.70;;;;;;;16.22;96.49;100797.09;842259;23;1041;-82
2023/05/22 00:29:50;;;;;;;25.05;18.95;;;;;;;16.22;96.42;100791.84;838896;23;1056;-81
2023/05/22 00:30:12;;;;;;;24.45;18.83;;;;;;;16.23;96.31;100788.34;841314;23;1154;-81
2023/05/22 00:30:33;;;;;;;24.98;19.13;;;;;;;16.22;96.35;100781.31;841167;23;1531;-82
2023/05/22 00:30:54;;;;;;;25.63;19.17;;;;;;;16.23;96.32;100783.94;838744;23;1023;-82
2023/05/22 00:31:15;;;;;;;26.98;19.48;;;;;;;16.29;96.25;100799.78;842958;23;1135;-82
2023/05/22 00:31:36;;;;;;;26.20;19.33;;;;;;;16.23;96.36;100791.81;841269;23;1457;-82
2023/05/22 00:31:56;;;;;;;25.52;19.00;;;;;;;16.24;96.16;100787.44;847104;23;910;-82
2023/05/22 00:32:17;;;;;;;26.77;18.60;;;;;;;16.27;96.17;100795.38;841584;23;1190;-82
2023/05/22 00:32:38;;;;;;;27.48;18.90;;;;;;;16.18;96.08;100783.03;839060;23;1064;-79
2023/05/22 00:32:59;;;;;;;25.90;18.52;;;;;;;16.30;96.03;100795.41;840876;23;1246;-82
2023/05/22 00:33:20;;;;;;;23.90;18.48;;;;;;;16.26;96.09;100793.63;849688;23;1227;-82
2023/05/22 00:33:41;;;;;;;23.27;17.90;;;;;;;16.21;96.27;100785.69;846543;23;1058;-82
2023/05/22 00:34:02;;;;;;;22.70;17.40;;;;;;;16.13;96.20;100777.75;841218;23;1086;-81
2023/05/22 00:34:23;;;;;;;23.52;17.73;;;;;;;16.21;96.17;100782.19;837272;23;1237;-82
2023/05/22 00:34:43;;;;;;;25.55;18.10;;;;;;;16.20;96.15;100789.19;837596;23;1177;-82
2023/05/22 00:35:05;;;;;;;26.40;18.67;;;;;;;16.20;96.30;100785.66;842255;23;902;-82
2023/05/22 00:35:26;;;;;;;25.13;18.55;;;;;;;16.17;96.00;100783.91;840953;23;1204;-82
2023/05/22 00:35:46;;;;;;;24.85;18.83;;;;;;;16.26;95.97;100796.25;848770;23;1130;-81
2023/05/22 00:36:08;;;;;;;24.50;18.50;;;;;;;16.22;96.04;100792.69;840604;23;1389;-81
2023/05/22 00:36:29;;;;;;;24.60;18.50;;;;;;;16.20;96.28;100788.28;844043;23;1433;-81
2023/05/22 00:36:50;;;;;;;24.50;18.67;;;;;;;16.21;96.03;100790.09;841682;23;751;-81
2023/05/22 00:37:11;;;;;;;25.33;18.87;;;;;;;16.18;96.06;100783.91;840584;23;1127;-81
2023/05/22 00:37:31;;;;;;;26.27;19.00;;;;;;;16.17;95.89;100789.19;840351;23;1355;-82
2023/05/22 00:37:52;;;;;;;25.15;18.88;;;;;;;16.14;95.86;100774.25;840063;23;1280;-82
2023/05/22 00:38:31;;;;;;;24.92;18.50;;;;;;;16.20;95.75;100794.47;845926;23;920;-81
2023/05/22 00:38:51;;;;;;;24.33;18.27;;;;;;;16.14;96.06;100776.88;847738;23;1246;-82
2023/05/22 00:39:12;;;;;;;24.55;18.48;;;;;;;16.17;95.72;100789.19;844287;23;1442;-82
2023/05/22 00:39:33;;;;;;;25.27;18.38;;;;;;;16.11;95.96;100779.47;840168;23;1204;-81
2023/05/22 00:39:54;;;;;;;25.13;18.13;;;;;;;16.17;95.96;100790.06;836151;23;1348;-82
2023/05/22 00:40:15;;;;;;;24.08;17.80;;;;;;;16.18;95.84;100790.94;839607;23;1141;-81
2023/05/22 00:40:36;;;;;;;24.05;18.25;;;;;;;16.08;95.79;100779.47;845648;23;897;-82
2023/05/22 00:41:01;;;;;;;24.65;18.00;;;;;;;16.14;95.79;100795.31;841793;23;794;-82
2023/05/22 00:41:22;;;;;;;24.65;18.17;;;;;;;16.09;95.96;100785.63;847745;23;1157;-82
2023/05/22 00:41:43;;;;;;;24.38;17.95;;;;;;;16.11;95.85;100783.88;844163;23;1351;-82
2023/05/22 00:42:04;;;;;;;22.98;17.70;;;;;;;16.09;95.85;100780.38;836000;23;1510;-81
2023/05/22 00:42:25;;;;;;;24.80;17.88;;;;;;;16.12;95.94;100794.41;839995;23;1234;-82
2023/05/22 00:42:46;;;;;;;24.27;18.02;;;;;;;16.05;95.90;100779.47;840305;23;1108;-81
2023/05/22 00:43:08;;;;;;;24.83;18.30;;;;;;;16.05;95.78;100774.22;841703;23;943;-82
2023/05/22 00:43:29;;;;;;;22.45;18.00;;;;;;;16.07;95.79;100783.00;841416;23;949;-82
2023/05/22 00:43:50;;;;;;;23.60;17.92;;;;;;;16.04;95.76;100778.59;839820;23;1349;-82
2023/05/22 00:44:11;;;;;;;23.25;17.52;;;;;;;16.03;96.11;100771.56;849818;23;1019;-82
2023/05/22 00:44:31;;;;;;;25.02;18.25;;;;;;;16.12;95.70;100797.03;839489;23;1199;-82
2023/05/22 00:44:52;;;;;;;25.92;18.33;;;;;;;16.04;95.70;100775.06;839702;23;1281;-82
2023/05/22 00:45:14;;;;;;;25.88;18.67;;;;;;;16.05;95.59;100782.09;847999;23;1914;-82
2023/05/22 00:45:35;;;;;;;25.85;19.05;;;;;;;16.01;95.56;100778.56;845426;23;980;-82
2023/05/22 00:45:56;;;;;;;24.63;19.17;;;;;;;16.00;95.72;100768.03;841731;23;751;-81
2023/05/22 00:46:20;;;;;;;25.23;19.10;;;;;;;16.07;95.64;100788.25;844020;23;1270;-81
2023/05/22 00:46:41;;;;;;;23.98;18.40;;;;;;;15.97;95.63;100768.88;845485;23;1069;-82
2023/05/22 00:47:03;;;;;;;24.60;18.23;;;;;;;16.00;95.93;100775.94;841321;23;1012;-82
2023/05/22 00:47:25;;;;;;;25.25;18.20;;;;;;;15.99;95.85;100774.16;845706;23;918;-81
2023/05/22 00:47:47;;;;;;;26.70;18.40;;;;;;;16.00;96.12;100773.28;840067;23;1093;-81
2023/05/22 00:48:08;;;;;;;26.48;18.50;;;;;;;16.03;95.92;100775.94;840177;23;1165;-81
2023/05/22 00:48:29;;;;;;;25.27;17.73;;;;;;;16.06;95.71;100785.59;849273;23;1038;-81
2023/05/22 00:48:51;;;;;;;25.48;18.08;;;;;;;16.08;95.69;100784.75;847792;23;1276;-82
2023/05/22 00:49:11;;;;;;;25.92;18.40;;;;;;;16.03;95.54;100778.56;836138;23;1200;-82
2023/05/22 00:49:33;;;;;;;25.95;19.00;;;;;;;16.07;95.77;100782.09;839989;23;1256;-81
2023/05/22 00:49:53;;;;;;;25.55;18.55;;;;;;;16.04;95.64;100777.69;841678;23;849;-82
2023/05/22 00:50:14;;;;;;;24.40;18.75;;;;;;;16.00;95.49;100779.41;840289;23;1117;-81
2023/05/22 00:50:35;;;;;;;24.80;18.90;;;;;;;16.08;95.61;100790.00;838852;23;1240;-81
2023/05/22 00:50:57;;;;;;;25.23;19.05;;;;;;;16.00;95.52;100782.06;840259;23;1078;-83
2023/05/22 00:51:20;;;;;;;25.52;18.42;;;;;;;16.02;95.56;100784.69;839159;23;1324;-82
2023/05/22 00:51:43;;;;;;;24.75;17.35;;;;;;;16.04;95.78;100793.47;840018;23;1350;-82
2023/05/22 00:52:03;;;;;;;24.20;17.38;;;;;;;16.04;95.89;100788.22;840298;23;1227;-82
2023/05/22 00:52:25;;;;;;;25.35;18.15;;;;;;;15.96;95.81;100780.28;840120;23;1252;-82
2023/05/22 00:52:46;;;;;;;27.13;18.80;;;;;;;16.03;95.69;100794.34;840176;23;1513;-82
2023/05/22 00:53:07;;;;;;;27.77;18.98;;;;;;;16.01;95.82;100785.56;843630;23;1473;-82
2023/05/22 00:53:29;;;;;;;28.27;19.33;;;;;;;16.04;95.88;100793.47;841355;23;982;-81
2023/05/22 00:53:50;;;;;;;27.90;19.48;;;;;;;15.97;95.88;100776.78;836051;23;1105;-81
2023/05/22 00:54:12;;;;;;;27.20;19.25;;;;;;;16.03;95.89;100791.72;836410;23;1189;-82
2023/05/22 00:54:33;;;;;;;25.52;18.33;;;;;;;15.97;95.90;100776.78;835464;23;1068;-82
2023/05/22 00:54:54;;;;;;;24.92;18.40;;;;;;;15.94;96.01;100781.16;839945;23;1291;-81
2023/05/22 00:55:15;;;;;;;24.48;18.30;;;;;;;16.00;95.93;100789.09;841621;23;1070;-81
2023/05/22 00:55:36;;;;;;;24.98;18.90;;;;;;;16.03;95.81;100791.72;843065;23;1357;-81
2023/05/22 00:55:58;;;;;;;25.60;19.05;;;;;;;15.99;95.78;100784.69;843975;23;1233;-82
2023/05/22 00:56:20;;;;;;;26.38;19.33;;;;;;;15.96;95.89;100777.66;845558;23;1147;-82
2023/05/22 00:56:42;;;;;;;26.48;18.95;;;;;;;16.02;95.91;100789.97;843868;23;1136;-82
2023/05/22 00:57:04;;;;;;;24.38;18.33;;;;;;;15.97;95.73;100775.91;843908;23;1291;-81
2023/05/22 00:57:24;;;;;;;24.15;18.10;;;;;;;15.98;95.69;100777.69;839944;23;1336;-82
2023/05/22 00:57:45;;;;;;;25.07;18.40;;;;;;;15.95;95.64;100772.38;843373;23;1152;-81
2023/05/22 00:58:09;;;;;;;25.63;18.55;;;;;;;15.88;95.74;100772.34;847475;23;1380;-81
2023/05/22 00:58:30;;;;;;;24.50;18.25;;;;;;;15.93;96.07;100782.03;847965;23;1207;-82
2023/05/22 00:58:50;;;;;;;24.80;18.35;;;;;;;15.89;95.71;100766.22;843371;23;1161;-82
2023/05/22 00:59:11;;;;;;;25.70;19.30;;;;;;;15.92;95.89;100775.00;841641;23;1061;-82
2023/05/22 00:59:32;;;;;;;26.20;19.90;;;;;;;15.85;95.90;100774.09;839957;23;1308;-82
2023/05/22 00:59:53;;;;;;;25.02;19.92;;;;;;;15.89;95.78;100782.03;836218;23;1330;-81
2023/05/22 01:00:15;;;;;;;24.55;19.65;;;;;;;15.84;96.25;100775.84;836024;23;1257;-82
2023/05/22 01:00:38;;;;;;;23.73;19.10;;;;;;;15.80;96.43;100763.50;835588;23;1281;-82
2023/05/22 01:01:00;;;;;;;24.13;18.90;;;;;;;15.84;96.31;100778.47;836211;23;1238;-82
2023/05/22 01:01:22;;;;;;;24.20;18.40;;;;;;;15.85;96.56;100782.00;838191;23;1179;-81
2023/05/22 01:01:43;;;;;;;24.10;18.42;;;;;;;15.79;96.43;100761.75;843837;23;1121;-82
2023/05/22 01:02:04;;;;;;;24.13;18.02;;;;;;;15.85;96.32;100780.22;841427;23;1028;-81
2023/05/22 01:02:25;;;;;;;25.77;18.20;;;;;;;15.83;96.47;100774.06;839785;23;1125;-82
2023/05/22 01:02:46;;;;;;;26.33;18.48;;;;;;;15.80;96.62;100768.78;837468;23;759;-82
2023/05/22 01:03:08;;;;;;;26.40;18.52;;;;;;;15.86;96.57;100781.13;838809;23;1356;-81
2023/05/22 01:03:30;;;;;;;24.95;18.75;;;;;;;15.78;96.54;100769.66;845287;23;980;-82
2023/05/22 01:03:52;;;;;;;23.48;17.52;;;;;;;15.86;96.46;100795.13;845451;23;892;-82
2023/05/22 01:04:14;;;;;;;23.75;17.63;;;;;;;15.75;96.46;100768.75;849524;23;1085;-82
2023/05/22 01:04:36;;;;;;;23.88;17.20;;;;;;;15.84;96.53;100778.47;843641;23;1295;-82
2023/05/22 01:04:56;;;;;;;22.95;17.42;;;;;;;15.82;96.58;100779.31;842676;23;1251;-82
2023/05/22 01:05:17;;;;;;;22.92;17.85;;;;;;;15.83;96.48;100773.19;839163;23;1905;-82
2023/05/22 01:05:39;;;;;;;24.75;18.30;;;;;;;15.87;96.40;100780.25;839578;23;1217;-82
2023/05/22 01:06:00;;;;;;;25.63;18.77;;;;;;;15.86;96.38;100768.81;839818;23;1183;-83
2023/05/22 01:06:21;;;;;;;25.38;18.50;;;;;;;15.92;96.24;100785.53;839668;23;1217;-82
2023/05/22 01:06:46;;;;;;;23.35;18.27;;;;;;;15.86;96.10;100767.97;843882;23;1196;-82
2023/05/22 01:07:07;;;;;;;24.10;18.17;;;;;;;15.87;95.88;100767.09;845585;23;1040;-82
2023/05/22 01:07:29;;;;;;;24.37;18.17;;;;;;;15.86;96.19;100781.97;843820;23;1038;-82
2023/05/22 01:08:23;;;;;;;24.65;18.70;;;;;;;15.92;95.64;100785.53;841548;23;772;-81
2023/05/22 01:08:44;;;;;;;26.08;18.45;;;;;;;15.83;95.88;100773.19;835730;23;1397;-82
2023/05/22 01:09:05;;;;;;;25.83;18.42;;;;;;;15.87;95.97;100778.47;842861;23;1178;-82
2023/05/22 01:09:26;;;;;;;25.05;18.35;;;;;;;15.88;95.62;100774.97;847849;23;1358;-82
2023/05/22 01:09:46;;;;;;;23.50;18.13;;;;;;;15.86;95.62;100778.47;845465;23;781;-81
2023/05/22 01:10:08;;;;;;;24.02;18.27;;;;;;;15.89;95.51;100782.03;839140;23;1357;-82
2023/05/22 01:10:30;;;;;;;24.63;18.20;;;;;;;15.94;95.58;100773.25;843755;23;1168;-82
2023/05/22 01:10:57;;;;;;;26.67;18.50;;;;;;;15.87;95.49;100767.94;847249;23;1126;-81
2023/05/22 01:11:31;;;;;;;27.40;18.90;;;;;;;15.91;95.74;100784.63;849477;23;1015;-82
2023/05/22 01:12:28;;;;;;;26.23;18.88;;;;;;;15.94;95.56;100786.41;839594;23;1343;-82
2023/05/22 01:13:32;;;;;;;24.38;17.70;;;;;;;15.85;95.71;100774.97;832563;23;1237;-81
2023/05/22 01:14:40;;;;;;;27.50;18.40;;;;;;;15.97;95.55;100782.03;845050;23;987;-81
2023/05/22 01:15:30;;;;;;;26.80;19.70;;;;;;;15.94;95.84;100786.41;844874;23;1279;-82
2023/05/22 01:15:57;;;;;;;26.48;19.00;;;;;;;15.94;95.97;100783.78;849025;23;835;-82
2023/05/22 01:16:38;;;;;;;24.25;18.35;;;;;;;16.01;95.82;100788.22;840029;23;1102;-81
2023/05/22 01:17:27;;;;;;;23.95;18.75;;;;;;;15.89;95.82;100768.88;835187;23;1111;-81
2023/05/22 01:18:11;;;;;;;24.70;18.17;;;;;;;15.96;95.59;100774.13;845410;23;811;-81
2023/05/22 01:19:01;;;;;;;26.77;19.15;;;;;;;15.89;96.11;100774.13;843605;23;1308;-81
2023/05/22 01:19:50;;;;;;;25.98;19.42;;;;;;;15.96;95.98;100774.13;839779;23;997;-82
2023/05/22 01:20:35;;;;;;;25.73;19.30;;;;;;;16.09;95.58;100777.75;839822;23;1348;-81
2023/05/22 01:21:11;;;;;;;28.73;19.83;;;;;;;16.01;95.58;100788.22;847882;23;1102;-81
2023/05/22 01:21:45;;;;;;;30.60;20.10;;;;;;;16.04;95.75;100791.75;843433;23;913;-81
2023/05/22 01:22:29;;;;;;;28.35;19.30;;;;;;;15.88;95.99;100772.34;839862;23;1152;-81
2023/05/22 01:23:01;;;;;;;27.88;19.60;;;;;;;16.01;96.20;100782.94;828007;23;1143;-81
2023/05/22 01:23:48;;;;;;;28.50;20.30;;;;;;;15.95;96.13;100780.28;841276;23;1029;-81
2023/05/22 01:24:12;;;;;;;27.65;20.10;;;;;;;15.97;96.63;100783.81;839675;23;1428;-81
2023/05/22 01:24:42;;;;;;;27.27;20.00;;;;;;;16.00;96.73;100781.19;839503;23;1074;-81
2023/05/22 01:25:41;;;;;;;27.65;20.10;;;;;;;16.02;96.47;100772.44;841498;23;1963;-81
2023/05/22 01:26:21;;;;;;;28.20;19.90;;;;;;;16.29;95.33;100783.13;839880;23;1207;-81
2023/05/22 01:26:53;;;;;;;26.98;19.70;;;;;;;16.12;95.11;100783.00;843673;23;1149;-81
2023/05/22 01:27:33;;;;;;;27.10;20.25;;;;;;;16.00;95.61;100786.44;841045;23;1000;-81
2023/05/22 01:28:37;;;;;;;24.85;18.90;;;;;;;15.87;96.01;100773.22;843723;23;1296;-81
2023/05/22 01:29:23;;;;;;;27.15;19.27;;;;;;;15.80;96.27;100763.50;841465;23;1199;-81
2023/05/22 01:30:17;;;;;;;25.90;19.70;;;;;;;15.94;96.53;100786.41;848713;23;1108;-81
2023/05/22 01:30:47;;;;;;;25.80;20.02;;;;;;;15.90;96.60;100777.63;847156;23;1405;-82
2023/05/22 01:31:10;;;;;;;25.15;19.75;;;;;;;15.88;96.63;100774.97;845326;23;1067;-81
2023/05/22 01:31:34;;;;;;;24.98;19.20;;;;;;;15.89;96.61;100774.13;845084;23;1029;-82
2023/05/22 01:31:58;;;;;;;24.80;19.10;;;;;;;15.86;96.69;100774.09;843875;23;1113;-82
2023/05/22 01:32:22;;;;;;;24.73;19.17;;;;;;;15.90;96.64;100783.78;845117;23;941;-82
2023/05/22 01:32:47;;;;;;;25.58;19.67;;;;;;;15.85;96.61;100772.31;847857;23;1385;-81
2023/05/22 01:33:11;;;;;;;27.08;20.10;;;;;;;15.89;96.43;100773.22;842350;23;1482;-81
2023/05/22 01:33:44;;;;;;;25.95;19.40;;;;;;;15.85;96.39;100768.84;839682;23;1279;-81
2023/05/22 01:34:10;;;;;;;24.95;18.83;;;;;;;15.89;96.28;100779.38;841310;23;1119;-81
2023/05/22 01:34:35;;;;;;;25.52;18.88;;;;;;;15.86;96.24;100779.34;842146;23;1148;-81
2023/05/22 01:35:00;;;;;;;26.75;19.10;;;;;;;15.84;96.28;100781.09;839705;23;1440;-81
2023/05/22 01:35:21;;;;;;;26.00;18.90;;;;;;;15.84;96.17;100778.47;839680;23;1188;-81
2023/05/22 01:35:50;;;;;;;27.45;18.63;;;;;;;15.86;96.10;100778.47;843919;23;1224;-81
2023/05/22 01:36:14;;;;;;;27.98;18.95;;;;;;;15.86;96.51;100783.75;849467;23;919;-82
2023/05/22 01:36:37;;;;;;;26.20;18.98;;;;;;;15.82;96.29;100777.59;846682;23;1096;-81
2023/05/22 01:36:59;;;;;;;26.80;19.20;;;;;;;15.85;96.47;100790.75;839172;23;1207;-81
2023/05/22 01:37:22;;;;;;;27.45;19.83;;;;;;;15.75;96.40;100760.84;837136;23;1173;-81
2023/05/22 01:37:47;;;;;;;29.75;20.77;;;;;;;15.80;96.41;100773.19;835782;23;1256;-81
2023/05/22 01:38:09;;;;;;;29.27;20.67;;;;;;;15.82;96.55;100777.59;835389;23;1192;-81
2023/05/22 01:38:32;;;;;;;29.02;19.90;;;;;;;15.82;96.19;100772.31;836613;23;1123;-82
2023/05/22 01:38:53;;;;;;;27.75;19.65;;;;;;;15.87;96.19;100785.50;839283;23;1327;-81
2023/05/22 01:39:16;;;;;;;27.02;19.63;;;;;;;15.81;96.13;100772.31;839626;23;1215;-81
2023/05/22 01:39:37;;;;;;;28.95;19.90;;;;;;;15.88;96.18;100780.22;840942;23;977;-81
2023/05/22 01:39:58;;;;;;;28.10;19.40;;;;;;;15.83;96.24;100774.06;841183;23;847;-82
2023/05/22 01:40:19;;;;;;;27.10;19.10;;;;;;;15.72;96.07;100760.84;838813;23;1120;-81
2023/05/22 01:40:41;;;;;;;25.23;18.58;;;;;;;15.76;96.19;100782.81;835684;23;1337;-81
2023/05/22 01:41:02;;;;;;;26.55;18.80;;;;;;;15.85;96.01;100782.84;841140;23;1074;-81
2023/05/22 01:41:23;;;;;;;27.92;19.15;;;;;;;15.76;96.16;100777.53;839806;23;1196;-81
2023/05/22 01:41:44;;;;;;;28.30;19.67;;;;;;;15.61;96.43;100768.66;843746;23;1316;-81
2023/05/22 01:42:06;;;;;;;26.42;19.40;;;;;;;15.60;96.60;100768.66;839287;23;1178;-81
2023/05/22 01:42:28;;;;;;;26.42;19.35;;;;;;;15.60;96.69;100769.53;840925;23;997;-81
2023/05/22 01:42:48;;;;;;;25.92;19.23;;;;;;;15.63;96.69;100774.81;841424;23;784;-81
2023/05/22 01:43:09;;;;;;;26.40;19.38;;;;;;;15.59;96.83;100764.25;841325;23;957;-81
2023/05/22 01:43:30;;;;;;;26.70;19.60;;;;;;;15.59;96.91;100770.41;845154;23;1016;-81
2023/05/22 01:43:51;;;;;;;25.93;19.40;;;;;;;15.66;96.86;100781.00;838796;23;1118;-81
2023/05/22 01:44:12;;;;;;;26.67;19.35;;;;;;;15.59;97.10;100765.16;837520;23;1045;-81
2023/05/22 01:44:32;;;;;;;26.52;19.42;;;;;;;15.63;97.02;100780.06;835803;23;1389;-81
2023/05/22 01:44:53;;;;;;;26.75;19.42;;;;;;;15.66;97.03;100788.88;837389;23;866;-82
2023/05/22 01:45:14;;;;;;;25.38;19.40;;;;;;;15.67;97.05;100788.00;835690;23;1941;-81
2023/05/22 01:45:35;;;;;;;25.17;19.35;;;;;;;15.60;96.81;100773.91;843158;23;1359;-81
2023/05/22 01:45:56;;;;;;;25.52;19.60;;;;;;;15.56;96.95;100775.63;845255;23;771;-81
2023/05/22 01:46:17;;;;;;;25.27;18.70;;;;;;;15.55;96.91;100768.63;849173;23;952;-81
2023/05/22 01:46:38;;;;;;;25.33;18.67;;;;;;;15.62;96.98;100782.72;842405;23;1271;-81
2023/05/22 01:47:03;;;;;;;25.35;18.60;;;;;;;15.60;97.07;100787.94;839138;23;1180;-81
2023/05/22 01:47:24;;;;;;;26.13;19.30;;;;;;;15.58;96.99;100787.06;845053;23;1070;-81
2023/05/22 01:47:45;;;;;;;26.48;19.13;;;;;;;15.52;96.85;100773.88;843617;23;1126;-81
2023/05/22 01:48:06;;;;;;;26.05;18.77;;;;;;;15.53;96.93;100773.00;847373;23;1124;-81
2023/05/22 01:48:26;;;;;;;24.83;18.30;;;;;;;15.50;96.92;100767.72;847479;23;1236;-81
2023/05/22 01:48:47;;;;;;;23.50;17.80;;;;;;;15.53;96.94;100778.25;838138;23;1229;-81
2023/05/22 01:49:08;;;;;;;23.58;17.92;;;;;;;15.54;97.04;100780.00;840788;23;1340;-81
2023/05/22 01:49:29;;;;;;;25.30;18.43;;;;;;;15.51;97.07;100773.84;839365;23;1099;-81
2023/05/22 01:49:50;;;;;;;26.27;19.13;;;;;;;15.48;96.97;100772.06;839715;23;1172;-81
2023/05/22 01:50:12;;;;;;;26.27;19.08;;;;;;;15.57;97.01;100787.03;839890;23;1256;-81
2023/05/22 01:50:33;;;;;;;26.17;19.45;;;;;;;15.56;96.88;100787.91;836962;23;1041;-81
2023/05/22 01:50:56;;;;;;;26.83;19.85;;;;;;;15.48;97.00;100772.06;835810;23;1181;-81
2023/05/22 01:51:28;;;;;;;25.73;19.52;;;;;;;15.53;96.94;100785.25;835813;23;1197;-81
2023/05/22 01:51:57;;;;;;;24.45;18.58;;;;;;;15.47;97.15;100768.56;837276;23;807;-81